Decoded Metar for NZCH (CHRISTCHURCH in NEW ZEALAND) (IATA:CHC) | Meteo·Mobile Aviation Weather
aviador You're here:

NZCH Decoded Metar

CHRISTCHURCH in NEW ZEALAND
Report Time2019-02-21 23:00:00
UTC Time2019-02-21 23:40:35
Flight Rules vfr VFR
Wind210° at 19 kt
W.Decomp.*RWY 20: 18.5 kt HW 4.3 kt LCW
RWY 11: 4.3 kt HW 18.5 kt RCW
W.Rank210° ranks 9
Current wind is above 210° avg. (9.9)
Visibility9999 m
Phenomena:N/A
Clouds:N/A
Expected CloudBase > 3,600 ft AGL from Temp-Dew spread
CeilingNone
Temp22°C (ISA +7)
Dew Point13°C (57% RH)
AAT16.1°C
QNH1005 hPa
Density Alt1,424 ft
Elevation112 ft
Report Wrong Elevation
Raw Report
NZCH 212300Z AUTO 21019KT 9999 NCD 22/13 Q1005 NOSIG=

Extra information for NZCH:More info

Metar Taf Metar & Taf Last 4 Metars F.Rules Stats Wind Profile Meteogram Temp Stats Airport Information Weather charts Add Link Nearby VenuesMetar ALERT Operation Metar Decoded Social comments